createdAt,value
2022-11-13T00:02:49.816Z,96931.97
2022-11-13T00:08:10.175Z,96919.84
2022-11-13T00:13:31.021Z,96923.56
2022-11-13T00:18:51.146Z,96924.25
2022-11-13T00:24:12.149Z,96926.06
2022-11-13T00:29:32.306Z,96924.69
2022-11-13T00:34:52.910Z,96911.78
2022-11-13T00:40:13.199Z,96898.88
2022-11-13T00:45:33.545Z,96909.97
2022-11-13T00:50:54.103Z,96907.59
2022-11-13T00:56:14.693Z,96910.19
2022-11-13T01:01:35.085Z,96896.69
2022-11-13T01:06:55.684Z,96898.41
2022-11-13T01:12:15.784Z,96894.66
2022-11-13T01:17:36.672Z,96888.97
2022-11-13T01:22:56.951Z,96868.94
2022-11-13T01:28:17.341Z,96867.69
2022-11-13T01:33:37.923Z,96860.59
2022-11-13T01:38:58.878Z,96858.88
2022-11-13T01:44:20.326Z,96855.56
2022-11-13T01:49:43.800Z,96842.22
2022-11-13T01:55:17.169Z,96834.16
2022-11-13T02:00:37.513Z,96826.25
2022-11-13T02:05:58.036Z,96810.97
2022-11-13T02:11:20.010Z,96812.91
2022-11-13T02:16:43.070Z,96802.38
2022-11-13T02:22:09.224Z,96783.72
2022-11-13T02:27:36.192Z,96791.88
2022-11-13T02:32:58.458Z,96783.72
2022-11-13T02:38:18.748Z,96781.03
2022-11-13T02:43:39.144Z,96786.44
2022-11-13T02:48:59.543Z,96782.34
2022-11-13T02:54:19.843Z,96769.34
2022-11-13T02:59:40.406Z,96766.19
2022-11-13T03:05:16.291Z,96751.38
2022-11-13T03:10:36.849Z,96752.06
2022-11-13T03:15:57.170Z,96758.25
2022-11-13T03:21:17.141Z,96750.22
2022-11-13T03:26:37.700Z,96744.16
2022-11-13T03:31:58.280Z,96739.16
2022-11-13T03:37:18.773Z,96740.78
2022-11-13T03:42:38.960Z,96741.56
2022-11-13T03:47:59.357Z,96730.38
2022-11-13T03:53:19.712Z,96718.41
2022-11-13T03:58:40.391Z,96709.13
2022-11-13T04:04:00.678Z,96707.66
2022-11-13T04:09:20.778Z,96703.03
2022-11-13T04:14:41.050Z,96692.63
2022-11-13T04:20:01.139Z,96682.22
2022-11-13T04:25:21.479Z,96665.63
2022-11-13T04:30:41.889Z,96667.66
2022-11-13T04:36:02.339Z,96664.25
2022-11-13T04:41:41.452Z,96657.81
2022-11-13T04:47:04.885Z,96663.34
2022-11-13T04:52:24.914Z,96666.97
2022-11-13T04:57:45.219Z,96656.56
2022-11-13T05:03:05.497Z,96645.72
2022-11-13T05:08:26.096Z,96641.63
2022-11-13T05:13:46.336Z,96635.88
2022-11-13T05:19:07.150Z,96632.16
2022-11-13T05:24:27.632Z,96629.53
2022-11-13T05:29:47.583Z,96617.56
2022-11-13T05:35:07.850Z,96619.91
2022-11-13T05:40:29.144Z,96623.41
2022-11-13T05:45:49.160Z,96623.78
2022-11-13T05:51:10.781Z,96600.47
2022-11-13T05:56:34.148Z,96603.41
2022-11-13T06:01:54.370Z,96600.28
2022-11-13T06:07:14.596Z,96609.53
2022-11-13T06:12:34.928Z,96618.03
2022-11-13T06:17:54.896Z,96600.50
2022-11-13T06:23:14.899Z,96607.41
2022-11-13T06:28:36.265Z,96607.75
2022-11-13T06:33:59.012Z,96604.25
2022-11-13T06:39:19.258Z,96594.50
2022-11-13T06:44:39.631Z,96596.66
2022-11-13T06:49:59.536Z,96591.59
2022-11-13T06:55:19.536Z,96592.47
2022-11-13T07:00:40.975Z,96577.44
2022-11-13T07:06:04.078Z,96560.06
2022-11-13T07:11:24.213Z,96558.22
2022-11-13T07:17:08.102Z,96562.72
2022-11-13T07:22:24.518Z,96555.94
2022-11-13T07:27:45.659Z,96539.84
2022-11-13T07:33:05.918Z,96538.47
2022-11-13T07:38:26.649Z,96533.25
2022-11-13T07:43:47.405Z,96519.09
2022-11-13T07:49:07.521Z,96507.72
2022-11-13T07:54:27.835Z,96512.22
2022-11-13T07:59:48.080Z,96504.34
2022-11-13T08:05:08.697Z,96490.16
2022-11-13T08:10:30.112Z,96486.47
2022-11-13T08:15:50.555Z,96486.66
2022-11-13T08:21:14.917Z,96479.94
2022-11-13T08:26:37.983Z,96468.00
2022-11-13T08:31:58.650Z,96462.06
2022-11-13T08:37:18.887Z,96466.59
2022-11-13T08:42:39.078Z,96474.72
2022-11-13T08:48:01.303Z,96473.03
2022-11-13T08:53:22.943Z,96484.25
2022-11-13T08:58:42.988Z,96496.56
2022-11-13T09:04:03.728Z,96497.22
2022-11-13T09:09:23.999Z,96497.09
2022-11-13T09:14:44.470Z,96506.63
2022-11-13T09:20:12.645Z,96509.56
2022-11-13T09:25:37.793Z,96515.66
2022-11-13T09:30:58.227Z,96513.47
2022-11-13T09:36:18.642Z,96502.81
2022-11-13T09:41:44.767Z,96504.56
2022-11-13T09:47:14.226Z,96493.53
2022-11-13T09:52:40.656Z,96493.69
2022-11-13T09:58:11.328Z,96483.78
2022-11-13T10:04:01.391Z,96476.97
2022-11-13T10:09:41.495Z,96465.53
2022-11-13T10:15:12.908Z,96454.38
2022-11-13T10:20:38.680Z,96459.22
2022-11-13T10:26:16.010Z,96454.38
2022-11-13T10:31:49.272Z,96446.00
2022-11-13T10:37:43.031Z,96437.63
2022-11-13T10:43:26.892Z,96423.34
2022-11-13T10:48:49.576Z,96407.13
2022-11-13T10:54:35.937Z,96391.69
2022-11-13T10:59:59.423Z,96375.41
2022-11-13T11:05:26.481Z,96364.19
2022-11-13T11:11:39.613Z,96347.09
2022-11-13T11:17:07.200Z,96343.69
2022-11-13T11:22:35.968Z,96341.84
2022-11-13T11:28:14.615Z,96322.75
2022-11-13T11:34:00.847Z,96325.19
2022-11-13T11:39:51.530Z,96303.34
2022-11-13T11:45:43.389Z,96304.19
2022-11-13T11:51:35.051Z,96295.63
2022-11-13T11:57:00.308Z,96297.63
2022-11-13T12:02:38.994Z,96295.72
2022-11-13T12:08:01.877Z,96276.16
2022-11-13T12:13:49.322Z,96279.66
2022-11-13T12:19:28.665Z,96272.63
2022-11-13T12:25:13.964Z,96266.38
2022-11-13T12:30:41.807Z,96256.97
2022-11-13T12:36:20.769Z,96256.56
2022-11-13T12:41:49.268Z,96241.25
2022-11-13T12:47:09.948Z,96248.31
2022-11-13T12:52:30.122Z,96237.72
2022-11-13T12:57:55.816Z,96234.94
2022-11-13T13:03:49.707Z,96231.03
2022-11-13T13:09:37.170Z,96220.06
2022-11-13T13:15:09.555Z,96210.22
2022-11-13T13:20:44.893Z,96206.28
2022-11-13T13:26:09.040Z,96198.84
2022-11-13T13:31:41.796Z,96198.44
2022-11-13T13:37:30.995Z,96196.03
2022-11-13T13:43:11.294Z,96190.56
2022-11-13T13:48:32.227Z,96187.00
2022-11-13T13:53:55.097Z,96175.97
2022-11-13T13:59:21.007Z,96170.44
2022-11-13T14:04:47.738Z,96175.13
2022-11-13T14:10:20.251Z,96168.41
2022-11-13T14:15:41.887Z,96178.59
2022-11-13T14:21:22.215Z,96175.06
2022-11-13T14:26:42.578Z,96160.16
2022-11-13T14:32:18.546Z,96158.94
2022-11-13T14:37:52.158Z,96163.66
2022-11-13T14:43:32.791Z,96171.13
2022-11-13T14:48:56.485Z,96160.97
2022-11-13T14:54:53.151Z,96151.13
2022-11-13T15:00:15.746Z,96145.72
2022-11-13T15:05:38.055Z,96135.16
2022-11-13T15:10:59.665Z,96132.84
2022-11-13T15:16:31.867Z,96132.91
2022-11-13T15:22:25.084Z,96134.56
2022-11-13T15:27:42.861Z,96144.84
2022-11-13T15:33:12.212Z,96142.16
2022-11-13T15:38:36.004Z,96144.59
2022-11-13T15:44:02.886Z,96145.78
2022-11-13T15:49:27.804Z,96141.88
2022-11-13T15:54:59.711Z,96143.09
2022-11-13T16:00:25.149Z,96135.22
2022-11-13T16:05:46.059Z,96138.31
2022-11-13T16:11:18.793Z,96140.19
2022-11-13T16:16:43.503Z,96135.41
2022-11-13T16:22:32.798Z,96132.66
2022-11-13T16:28:04.500Z,96141.94
2022-11-13T16:33:27.572Z,96137.09
2022-11-13T16:38:48.911Z,96140.50
2022-11-13T16:44:13.962Z,96138.06
2022-11-13T16:49:36.620Z,96139.13
2022-11-13T16:55:03.598Z,96135.13
2022-11-13T17:00:31.020Z,96126.78
2022-11-13T17:05:53.230Z,96126.31
2022-11-13T17:11:15.932Z,96121.97
2022-11-13T17:16:39.404Z,96118.38
2022-11-13T17:22:06.632Z,96113.63
2022-11-13T17:27:29.469Z,96109.69
2022-11-13T17:32:49.373Z,96103.38
2022-11-13T17:38:13.721Z,96104.50
2022-11-13T17:43:42.687Z,96092.41
2022-11-13T17:49:07.016Z,96097.84
2022-11-13T17:54:37.161Z,96087.69
2022-11-13T17:59:59.806Z,96086.84
2022-11-13T18:05:22.730Z,96089.09
2022-11-13T18:10:45.706Z,96080.06
2022-11-13T18:16:15.903Z,96090.06
2022-11-13T18:21:41.998Z,96094.66
2022-11-13T18:27:03.759Z,96081.69
2022-11-13T18:32:23.819Z,96081.97
2022-11-13T18:37:54.118Z,96065.97
2022-11-13T18:43:21.549Z,96073.69
2022-11-13T18:48:43.197Z,96069.75
2022-11-13T18:54:09.944Z,96060.44
2022-11-13T18:59:30.788Z,96072.47
2022-11-13T19:04:53.413Z,96060.41
2022-11-13T19:10:16.031Z,96054.13
2022-11-13T19:15:39.210Z,96052.59
2022-11-13T19:21:13.619Z,96054.09
2022-11-13T19:26:47.722Z,96049.41
2022-11-13T19:32:10.224Z,96056.72
2022-11-13T19:37:31.245Z,96046.94
2022-11-13T19:43:02.151Z,96047.34
2022-11-13T19:48:26.873Z,96057.03
2022-11-13T19:54:00.551Z,96048.44
2022-11-13T19:59:23.115Z,96052.31
2022-11-13T20:04:43.208Z,96056.16
2022-11-13T20:10:09.688Z,96056.91
2022-11-13T20:15:35.344Z,96057.66
2022-11-13T20:20:59.271Z,96051.03
2022-11-13T20:26:27.564Z,96048.28
2022-11-13T20:31:51.974Z,96037.75
2022-11-13T20:37:14.737Z,96024.13
2022-11-13T20:42:40.243Z,96030.28
2022-11-13T20:48:26.050Z,96021.31
2022-11-13T20:53:52.085Z,96025.16
2022-11-13T20:59:12.366Z,96012.28
2022-11-13T21:04:38.141Z,96012.69
2022-11-13T21:10:03.215Z,96020.41
2022-11-13T21:15:26.077Z,96014.91
2022-11-13T21:20:51.860Z,96005.56
2022-11-13T21:26:19.827Z,96011.72
2022-11-13T21:31:40.276Z,96019.47
2022-11-13T21:37:04.900Z,96014.41
2022-11-13T21:42:27.265Z,96003.09
2022-11-13T21:47:50.707Z,95998.03
2022-11-13T21:53:12.190Z,95996.47
2022-11-13T21:58:38.662Z,95989.03
2022-11-13T22:04:08.933Z,95981.59
2022-11-13T22:09:40.518Z,95978.47
2022-11-13T22:15:00.800Z,95975.69
2022-11-13T22:20:23.934Z,95977.59
2022-11-13T22:25:47.016Z,95976.00
2022-11-13T22:31:19.496Z,95974.47
2022-11-13T22:36:41.835Z,95974.81
2022-11-13T22:42:02.016Z,95957.72
2022-11-13T22:47:27.137Z,95955.00
2022-11-13T22:52:51.572Z,95958.06
2022-11-13T22:58:14.657Z,95951.84
2022-11-13T23:03:45.646Z,95943.28
2022-11-13T23:09:09.548Z,95948.31
2022-11-13T23:14:39.732Z,95928.47
2022-11-13T23:20:00.052Z,95923.78
2022-11-13T23:25:25.355Z,95922.22
2022-11-13T23:30:54.717Z,95912.44
2022-11-13T23:36:17.897Z,95916.69
2022-11-13T23:41:45.556Z,95914.72
2022-11-13T23:47:08.078Z,95908.50
2022-11-13T23:52:30.630Z,95905.34
2022-11-13T23:58:02.967Z,95898.72
